This is the latest recevied weather packets stored in our database for station/object KM8V-8. If no packets are shown the sender has not sent any weather packets the latest 10 day(s).
| Time | Temp. | Humidity | Pressure | Rain* | Wind** | Luminosity | Snow |
|---|---|---|---|---|---|---|---|
| 1777376718 | 14.44° C | 90% | 1009.8 hPa | 0 mm | - | 81 W/m² | - |
| 1777376418 | 14.44° C | 90% | 1009.9 hPa | 0 mm | - | 68 W/m² | - |
| 1777376119 | 14.44° C | 90% | 1009.9 hPa | 0 mm | - | 53 W/m² | - |
| 1777375819 | 14.44° C | 90% | 1009.9 hPa | 0 mm | - | 46 W/m² | - |
| 1777375518 | 14.44° C | 90% | 1009.8 hPa | 0 mm | - | 38 W/m² | - |
| 1777375218 | 14.44° C | 90% | 1009.9 hPa | 0 mm | - | 28 W/m² | - |
| 1777374920 | 14.44° C | 90% | 1009.9 hPa | 0 mm | - | 20 W/m² | - |
| 1777374619 | 14.44° C | 90% | 1009.8 hPa | 0 mm | - | 14 W/m² | - |
| 1777374319 | 14.44° C | 90% | 1009.7 hPa | 0 mm | - | 10 W/m² | - |
| 1777374018 | 14.44° C | 90% | 1009.4 hPa | 0 mm | - | 11 W/m² | - |
| 1777373719 | 14.44° C | 90% | 1009.3 hPa | 0 mm | - | 11 W/m² | - |
| 1777373418 | 15° C | 90% | 1009.2 hPa | 0 mm | - | 8 W/m² | - |
| 1777373118 | 15° C | 90% | 1009 hPa | 0 mm | - | 8 W/m² | - |
| 1777372819 | 15° C | 90% | 1008.7 hPa | 0 mm | - | 5 W/m² | - |
| 1777372519 | 15° C | 90% | 1008.6 hPa | 0 mm | - | 1 W/m² | - |
| 1777372219 | 15° C | 90% | 1008.5 hPa | 0 mm | - | 1 W/m² | - |
| 1777371919 | 15° C | 90% | 1008.4 hPa | 0 mm | - | 1 W/m² | - |
| 1777371619 | 15° C | 90% | 1008.3 hPa | 0 mm | - | 0 W/m² | - |
| 1777371319 | 14.44° C | 91% | 1008.1 hPa | 0 mm | - | 0 W/m² | - |
| 1777371020 | 14.44° C | 91% | 1007.9 hPa | 0 mm | - | 0 W/m² | - |
| 1777370719 | 14.44° C | 91% | 1007.8 hPa | 0 mm | - | 0 W/m² | - |
| 1777370420 | 14.44° C | 92% | 1007.7 hPa | 0 mm | - | 0 W/m² | - |
| 1777370119 | 14.44° C | 92% | 1007.8 hPa | 0 mm | - | 0 W/m² | - |
| 1777369819 | 14.44° C | 93% | 1007.6 hPa | 0 mm | - | 0 W/m² | - |
| 1777369520 | 14.44° C | 93% | 1007.2 hPa | 0 mm | - | 0 W/m² | - |
* Rain latest hour (hover to see other rain measurements)
** Current wind speed in m/s (hover to see current wind gust speed)